Details From EKCH - Kastrup
To MMMX - Licenciado Benito Juarez Intl
Flight Number -
Tags Generated
Created
Modified
Stats Distance 5,138 nm / 9,516 km
Max Altitude 0 ft / 0 m
Waypoints 14
Social Downloads 0
Likes 0
Share VATSIM

Download

Looking for another format? Having issues loading an existing format? Contact us
Advertisement - Login to hide

Notes

Generated

Route

EKCH LINVI AVTEX XBG03 YMX LOQSA KOFFE BRIGY ICAKI KH09K LLALE GLSRN TPX MMMX

ID Type Via Altitude Latitude Longitude Leg Dist Tot Dist Heading (true) Name
O EKCH APT - 0 ft / 0 m 55.62761˚ 12.62973˚ - 0 nm - -
LINVI FIX - 0 ft / 0 m 57.00000˚ 7.22722˚ 197 nm 197 nm 297° / 292° -
AVTEX FIX - 0 ft / 0 m 53.23757˚ -60.59151˚ 2243 nm 2441 nm 294° / 236° -
XBG03 FIX - 0 ft / 0 m 48.29247˚ -70.65031˚ 483 nm 2924 nm 236° / 228° -
YMX VOR - 0 ft / 0 m 45.88833˚ -74.37583˚ 209 nm 3134 nm 228° / 225° MIRABEL VOR-DME
LOQSA FIX - 0 ft / 0 m 43.03608˚ -78.22358˚ 237 nm 3371 nm 225° / 223° -
KOFFE FIX - 0 ft / 0 m 40.48708˚ -81.28144˚ 205 nm 3577 nm 223° / 221° -
BRIGY FIX - 0 ft / 0 m 37.62608˚ -84.33181˚ 223 nm 3800 nm 221° / 219° -
ICAKI FIX - 0 ft / 0 m 34.84764˚ -87.04206˚ 212 nm 4012 nm 219° / 217° -
KH09K FIX - 0 ft / 0 m 31.50000˚ -90.00000˚ 250 nm 4262 nm 217° / 216° -
LLALE FIX - 0 ft / 0 m 28.66667˚ -92.33333˚ 208 nm 4471 nm 216° / 215° -
GLSRN FIX - 0 ft / 0 m 25.66667˚ -94.66667˚ 219 nm 4690 nm 215° / 214° -
TPX NDB - 0 ft / 0 m 19.61142˚ -98.96039˚ 434 nm 5125 nm 214° / 212° TEPEXPAN NDB
O MMMX APT - 0 ft / 0 m 19.42701˚ -99.08585˚ 13 nm 5138 nm 213° / 213° -

Altitude Profile

Advertisement - Login to hide

Weather


0- 5 10 15 20 25 30 35+ Temperature / ° C

Clouds and Precipitation
Forecast for 2018-05-20 18:00 UTC. Updated an hour ago

Ground ~20,000 ft ~40,000 ft Winds

EKCH

Details ICAO EKCH (CPH)
Name Kastrup
Region Denmark / Faroe Islands
Timezone Europe/Copenhagen (UTC+2.0)
Stats Elevation 17 ft / 5 m (AMSL)
Location 55.612915° 12.640961°
Runways 3
Magnetic Variation 3.788° E

METAR

EKCH 201550Z 17010KT CAVOK 16/05 Q1028 NOSIG

Decode

TAF

TAF EKCH 201058Z 2012/2112 18008KT CAVOK BECMG 2021/2023 10006KT= TAF EKBI 201058Z 2012/2112 13008KT CAVOK

Decode

Departure Runways

ID Width Length Bearing (true) Bearing (mag) Surface Threshold Offset Overrun Length
04L 148 ft / 45 m 11,848 ft / 3,611 m 41.15° 37.36° Asphalt 0 ft / 0 m 0 ft / 0 m
04R 148 ft / 45 m 10,814 ft / 3,296 m 41.15° 37.36° Asphalt 0 ft / 0 m 0 ft / 0 m
12 148 ft / 45 m 10,047 ft / 3,063 m 123.21° 119.42° Asphalt 2,313 ft / 705 m 0 ft / 0 m
22L 148 ft / 45 m 10,814 ft / 3,296 m 221.17° 217.38° Asphalt 0 ft / 0 m 0 ft / 0 m
22R 148 ft / 45 m 11,848 ft / 3,611 m 221.18° 217.39° Asphalt 2,018 ft / 615 m 0 ft / 0 m
30 148 ft / 45 m 10,047 ft / 3,063 m 303.25° 299.46° Asphalt 886 ft / 270 m 0 ft / 0 m

MMMX

Details ICAO MMMX (MEX)
Name Licenciado Benito Juarez Intl
Region Mexico
Timezone America/Mexico_City (UTC-5.0)
Stats Elevation 7,316 ft / 2,230 m (AMSL)
Location 19.436308° -99.072104°
Runways 2
Magnetic Variation 4.599° E

METAR

MMMX 201548Z 09004KT 5SM SKC 21/10 A3031 NOSIG RMK HZY

Decode

TAF

TAF MMMX 201122Z 2012/2118 30005KT P6SM SCT080 TX29/2021Z TN15/2012Z FM201800 13005KT P6SM SCT020 FM202200 13012KT P6SM BKN020CB BKN080 TEMPO 2023/2103 2SM TSRA FM210500 03005KT P6SM SCT020 BKN250 FM211600 06005KT P6SM SCT020 SCT080

Decode

Destination Runways

ID Width Length Bearing (true) Bearing (mag) Surface Threshold Offset Overrun Length
05L 148 ft / 45 m 12,951 ft / 3,948 m 59.25° 54.65° Asphalt 1,033 ft / 315 m 0 ft / 0 m
05R 148 ft / 45 m 12,800 ft / 3,902 m 59.26° 54.66° Asphalt 1,493 ft / 455 m 0 ft / 0 m
23L 148 ft / 45 m 12,800 ft / 3,902 m 239.28° 234.68° Asphalt 0 ft / 0 m 200 ft / 61 m
23R 148 ft / 45 m 12,951 ft / 3,948 m 239.27° 234.67° Asphalt 1,640 ft / 500 m 0 ft / 0 m

Approach Navaids

Runway Type Ident Frequency Range Bearing (true) Bearing (mag) Slope Elevation
05R Localiser IMWX 109.10 MHz 18 nm / 33 km 59.26° 54.66° - 7,316 ft / 2,230 m (AMSL)
05R Glidescope IMWX 109.10 MHz 10 nm / 19 km 59.27° 54.67° 3.00° 7,316 ft / 2,230 m (AMSL)
05R DME IMWX 109.10 MHz 18 nm / 33 km - - - 7,316 ft / 2,230 m (AMSL)
23L Localiser IMEX 109.70 MHz 18 nm / 33 km 239.27° 234.67° - 7,316 ft / 2,230 m (AMSL)
23L Glidescope IMEX 109.70 MHz 10 nm / 19 km 239.27° 234.67° 3.00° 7,316 ft / 2,230 m (AMSL)
23L DME IMEX 109.70 MHz 18 nm / 33 km - - - 7,316 ft / 2,230 m (AMSL)

Popular Alternatives